Time;durP1;ratioP1;P1;durP2;ratioP2;P2;SDS_P1;SDS_P2;PMS_P1;PMS_P2;Temp;Humidity;BMP_temperature;BMP_pressure;BME280_temperature;BME280_humidity;BME280_pressure;Samples;Min_cycle;Max_cycle;Signal;HPM_P1;HPM_P2
2023/10/14 00:02:20;;;;;;;10.17;1.90;;;10.20;99.90;;;;;;1859993;76;25889;-92
2023/10/14 02:58:34;;;;;;;10.93;1.80;;;9.00;99.90;;;;;;1958515;71;25253;-93
2023/10/14 03:58:18;;;;;;;11.87;1.53;;;9.10;99.90;;;;;;1903670;74;25184;-93
2023/10/14 04:28:39;;;;;;;21.17;2.37;;;9.20;99.90;;;;;;1893855;74;25773;-91
2023/10/14 05:25:39;;;;;;;12.30;1.90;;;9.20;99.90;;;;;;1873011;75;25307;-92
2023/10/14 06:37:07;;;;;;;7.23;1.50;;;8.90;99.90;;;;;;1884313;75;25222;-92
2023/10/14 06:40:52;;;;;;;7.03;0.90;;;8.90;99.90;;;;;;1823370;77;25279;-92
2023/10/14 07:09:44;;;;;;;8.47;1.70;;;9.30;99.90;;;;;;1932708;73;25617;-92
2023/10/14 07:16:58;;;;;;;4.50;1.37;;;9.30;99.90;;;;;;1933654;73;25263;-92
2023/10/14 07:20:29;;;;;;;22.43;2.20;;;9.30;99.90;;;;;;1940070;72;25684;-92
2023/10/14 07:24:14;;;;;;;9.47;1.23;;;9.30;99.90;;;;;;1927412;72;25213;-92
2023/10/14 07:30:55;;;;;;;5.43;1.37;;;9.50;99.90;;;;;;1910692;73;25285;-92
2023/10/14 08:41:19;;;;;;;4.63;0.97;;;10.10;99.90;;;;;;1939399;72;25204;-92
2023/10/14 08:44:40;;;;;;;6.83;0.90;;;10.20;99.90;;;;;;1916803;74;25696;-92
2023/10/14 08:48:14;;;;;;;8.93;1.43;;;10.40;99.90;;;;;;1934881;72;25272;-92
2023/10/14 09:09:56;;;;;;;11.27;1.97;;;10.70;99.90;;;;;;1868296;75;25250;-90
2023/10/14 09:13:19;;;;;;;6.10;1.00;;;10.70;99.90;;;;;;1842410;76;25297;-92
2023/10/14 09:38:58;;;;;;;13.53;1.50;;;10.80;99.90;;;;;;1875782;75;25279;-90
2023/10/14 10:48:23;;;;;;;8.20;1.30;;;10.40;99.90;;;;;;1887408;74;28397;-92
2023/10/14 10:59:31;;;;;;;9.17;1.20;;;10.60;99.90;;;;;;1856221;76;25310;-92
2023/10/14 11:10:22;;;;;;;5.40;1.00;;;10.80;99.90;;;;;;1834649;77;25289;-92
2023/10/14 11:43:58;;;;;;;8.43;1.23;;;11.00;99.90;;;;;;2033325;69;25180;-90
2023/10/14 11:51:03;;;;;;;5.60;1.07;;;11.10;99.90;;;;;;2007493;69;25278;-90
2023/10/14 11:54:24;;;;;;;9.43;1.67;;;10.80;99.90;;;;;;2011341;69;25162;-91
2023/10/14 11:57:53;;;;;;;6.53;1.27;;;10.40;99.90;;;;;;2022627;69;25218;-90
2023/10/14 12:04:33;;;;;;;2.73;0.77;;;10.20;99.90;;;;;;2032132;70;25235;-91
2023/10/14 12:11:27;;;;;;;6.37;1.10;;;10.20;99.90;;;;;;2007814;69;25250;-90
2023/10/14 12:15:07;;;;;;;3.90;1.37;;;10.10;99.90;;;;;;2007975;69;25814;-90
2023/10/14 12:25:33;;;;;;;4.37;1.00;;;9.90;99.90;;;;;;2026571;69;25253;-91
2023/10/14 12:48:39;;;;;;;6.10;1.10;;;10.30;99.90;;;;;;1851702;76;25395;-90
2023/10/14 12:55:07;;;;;;;3.43;0.97;;;10.50;99.90;;;;;;1962382;72;29316;-92
2023/10/14 12:58:07;;;;;;;1.97;0.77;;;10.50;99.90;;;;;;1929732;73;25706;-90
2023/10/14 13:01:23;;;;;;;3.73;1.10;;;10.50;99.90;;;;;;1929682;73;25233;-90
2023/10/14 13:04:54;;;;;;;1.37;0.70;;;10.60;99.90;;;;;;1926730;73;25279;-92
2023/10/14 13:07:43;;;;;;;5.97;1.07;;;10.60;99.90;;;;;;1894173;75;25714;-89
2023/10/14 13:11:11;;;;;;;3.50;0.83;;;10.70;99.90;;;;;;1926818;73;25344;-90
2023/10/14 13:14:31;;;;;;;5.63;0.70;;;10.80;99.90;;;;;;1921327;73;25663;-92
2023/10/14 13:17:59;;;;;;;1.17;0.70;;;10.80;99.90;;;;;;1898735;73;25797;-92
2023/10/14 13:21:14;;;;;;;4.73;1.00;;;10.90;99.90;;;;;;1930352;73;25294;-89
2023/10/14 13:27:26;;;;;;;2.67;0.80;;;10.90;99.90;;;;;;1926099;73;25254;-91
2023/10/14 13:30:45;;;;;;;3.63;0.83;;;10.90;99.90;;;;;;1924986;73;25273;-92
2023/10/14 13:33:34;;;;;;;5.23;0.60;;;10.90;99.90;;;;;;1888444;75;25190;-91
2023/10/14 13:36:25;;;;;;;0.83;0.70;;;10.90;99.90;;;;;;1934222;73;25222;-92
2023/10/14 13:39:20;;;;;;;1.13;0.60;;;11.00;99.90;;;;;;1892276;75;25247;-92
2023/10/14 13:42:13;;;;;;;5.97;0.70;;;10.90;99.90;;;;;;1893575;75;25267;-91
2023/10/14 13:45:12;;;;;;;2.37;0.77;;;11.00;99.90;;;;;;1901366;74;25223;-92
2023/10/14 13:48:13;;;;;;;2.60;0.47;;;11.10;99.90;;;;;;1908957;73;25296;-91
2023/10/14 13:55:08;;;;;;;5.43;0.60;;;11.10;99.90;;;;;;1897745;74;25300;-92
2023/10/14 13:58:17;;;;;;;0.50;0.50;;;11.10;99.90;;;;;;1906515;74;25275;-92
2023/10/14 14:01:28;;;;;;;3.43;0.87;;;11.10;99.90;;;;;;1897545;74;25267;-92
2023/10/14 14:07:58;;;;;;;1.63;0.60;;;11.10;99.90;;;;;;1895167;74;25236;-91
2023/10/14 14:11:00;;;;;;;3.37;0.70;;;11.00;99.90;;;;;;1897385;74;25258;-91
2023/10/14 14:13:58;;;;;;;2.87;1.10;;;10.90;99.90;;;;;;1892684;74;25750;-91
2023/10/14 15:20:27;;;;;;;0.50;0.40;;;10.60;99.90;;;;;;1956183;72;27607;-90
2023/10/14 15:30:59;;;;;;;3.70;0.90;;;10.40;99.90;;;;;;1926667;73;25249;-90
2023/10/14 15:34:18;;;;;;;3.30;0.97;;;10.30;99.90;;;;;;1889598;75;25262;-90
2023/10/14 16:30:47;;;;;;;2.47;0.77;;;9.80;99.90;;;;;;1884734;74;25350;-91
2023/10/14 16:52:42;;;;;;;4.20;1.10;;;9.80;99.90;;;;;;1895766;75;25337;-90
2023/10/14 17:03:55;;;;;;;3.97;0.70;;;9.80;99.90;;;;;;1894019;75;25287;-91
2023/10/14 18:12:07;;;;;;;7.10;1.30;;;9.50;99.90;;;;;;1893118;74;25207;-91
2023/10/14 18:27:04;;;;;;;2.23;0.87;;;9.50;99.90;;;;;;1894662;74;25751;-91
2023/10/14 18:30:48;;;;;;;4.77;1.00;;;9.50;99.90;;;;;;1885348;74;25214;-91
2023/10/14 19:04:18;;;;;;;0.80;0.60;;;9.60;99.90;;;;;;1896436;75;25714;-91
2023/10/14 19:07:09;;;;;;;5.27;1.20;;;9.60;99.90;;;;;;1893731;75;25732;-91
2023/10/14 19:12:47;;;;;;;3.80;1.00;;;9.70;99.90;;;;;;1935247;72;27123;-89
2023/10/14 19:15:39;;;;;;;2.50;1.10;;;9.70;99.90;;;;;;1904000;73;25700;-91
2023/10/14 19:21:17;;;;;;;5.00;1.23;;;9.70;99.90;;;;;;1949697;72;28586;-88
2023/10/14 19:24:11;;;;;;;6.10;1.30;;;9.70;99.90;;;;;;1864693;75;25655;-89
2023/10/14 19:27:02;;;;;;;10.70;1.20;;;9.70;99.90;;;;;;1862079;76;25265;-89
2023/10/14 19:29:52;;;;;;;5.43;1.20;;;9.70;99.90;;;;;;1840244;77;25242;-88
2023/10/14 19:32:41;;;;;;;11.37;1.57;;;9.80;99.90;;;;;;1880422;75;25707;-88
2023/10/14 19:35:31;;;;;;;9.30;1.90;;;9.80;99.90;;;;;;1874979;75;25704;-88
2023/10/14 19:38:21;;;;;;;5.20;1.13;;;9.80;99.90;;;;;;1873908;75;25324;-90
2023/10/14 19:41:11;;;;;;;8.07;1.20;;;9.90;99.90;;;;;;1869979;75;25315;-90
2023/10/14 19:44:00;;;;;;;9.20;1.63;;;9.80;99.90;;;;;;1857778;76;25916;-88
2023/10/14 19:46:50;;;;;;;5.33;1.20;;;9.70;99.90;;;;;;1855995;76;25280;-87
2023/10/14 19:49:39;;;;;;;8.10;1.10;;;9.70;99.90;;;;;;1882189;75;25364;-87
2023/10/14 19:52:27;;;;;;;8.50;1.50;;;9.70;99.90;;;;;;1889341;75;25660;-88
2023/10/14 19:55:23;;;;;;;7.23;1.30;;;9.60;99.90;;;;;;1890104;75;25652;-88
2023/10/14 20:00:54;;;;;;;8.23;1.60;;;9.50;99.90;;;;;;1928386;72;26985;-87
2023/10/14 20:03:43;;;;;;;3.70;1.07;;;9.50;99.90;;;;;;1911966;73;25329;-88
2023/10/14 20:06:33;;;;;;;8.10;1.23;;;9.40;99.90;;;;;;1901505;74;25301;-87
2023/10/14 20:09:27;;;;;;;6.13;1.40;;;9.40;99.90;;;;;;1894846;74;25712;-88
2023/10/14 20:14:55;;;;;;;9.50;1.53;;;9.30;99.90;;;;;;1935754;72;26820;-88
2023/10/14 20:17:44;;;;;;;9.67;1.30;;;9.30;99.90;;;;;;1895284;75;25658;-87
2023/10/14 20:20:32;;;;;;;17.70;1.80;;;9.30;99.90;;;;;;1899807;75;26583;-89
2023/10/14 20:23:21;;;;;;;7.70;1.07;;;9.30;99.90;;;;;;1902386;74;25218;-87
2023/10/14 20:26:10;;;;;;;3.93;1.10;;;9.30;99.90;;;;;;1895160;73;25737;-90
2023/10/14 20:28:59;;;;;;;5.33;1.40;;;9.30;99.90;;;;;;1902001;75;25303;-89
2023/10/14 20:31:49;;;;;;;12.37;1.93;;;9.30;99.90;;;;;;1905710;75;25291;-89
2023/10/14 20:34:37;;;;;;;11.83;1.50;;;9.30;99.90;;;;;;1902541;73;25822;-90
2023/10/14 20:37:26;;;;;;;5.03;1.07;;;9.20;99.90;;;;;;1899242;75;25304;-89
2023/10/14 20:40:16;;;;;;;6.77;1.37;;;9.20;99.90;;;;;;1889352;75;25205;-89
2023/10/14 20:43:07;;;;;;;8.13;1.13;;;9.30;99.90;;;;;;1891943;74;25758;-90
2023/10/14 20:48:36;;;;;;;4.83;1.17;;;9.30;99.90;;;;;;1937243;72;27061;-87
2023/10/14 20:51:25;;;;;;;5.37;1.50;;;9.30;99.90;;;;;;1938483;73;25999;-88
2023/10/14 20:54:14;;;;;;;12.40;1.40;;;9.20;99.90;;;;;;1929852;72;25220;-88
2023/10/14 20:57:07;;;;;;;9.10;1.50;;;9.30;99.90;;;;;;1932191;73;25346;-88
2023/10/14 20:59:53;;;;;;;5.27;1.13;;;9.20;99.90;;;;;;1922731;74;25310;-89
2023/10/14 21:02:42;;;;;;;8.53;1.33;;;9.20;99.90;;;;;;1932129;72;25202;-88
2023/10/14 21:05:31;;;;;;;10.97;1.63;;;9.20;99.90;;;;;;1926087;72;25793;-88
2023/10/14 21:08:24;;;;;;;7.77;1.50;;;9.20;99.90;;;;;;1937213;73;25217;-88
2023/10/14 21:11:13;;;;;;;6.50;1.37;;;9.10;99.90;;;;;;1937467;73;25528;-89
2023/10/14 21:14:02;;;;;;;5.53;1.20;;;9.10;99.90;;;;;;1939308;73;25211;-88
2023/10/14 21:16:52;;;;;;;9.47;1.43;;;9.00;99.90;;;;;;1932101;73;25222;-88
2023/10/14 21:19:41;;;;;;;10.90;1.40;;;9.10;99.90;;;;;;1938719;73;25293;-88
2023/10/14 21:22:32;;;;;;;7.03;1.20;;;9.00;99.90;;;;;;1939403;73;25152;-88
2023/10/14 21:25:20;;;;;;;5.33;1.13;;;9.00;99.90;;;;;;1922726;74;25171;-88
2023/10/14 21:28:11;;;;;;;6.17;1.27;;;9.00;99.90;;;;;;1931096;73;25322;-89
2023/10/14 21:30:59;;;;;;;10.13;1.20;;;9.00;99.90;;;;;;1931351;72;26621;-88
2023/10/14 21:33:52;;;;;;;5.30;1.33;;;8.90;99.90;;;;;;1927857;73;25154;-89
2023/10/14 21:36:41;;;;;;;4.87;1.20;;;8.90;99.90;;;;;;1928158;73;25873;-88
2023/10/14 21:42:12;;;;;;;4.57;0.90;;;8.80;99.90;;;;;;1923968;72;27105;-87
2023/10/14 21:45:00;;;;;;;4.77;1.17;;;8.80;99.90;;;;;;1896708;75;25241;-89
2023/10/14 21:47:49;;;;;;;6.73;1.20;;;8.90;99.90;;;;;;1858260;75;25263;-89
2023/10/14 21:50:38;;;;;;;5.47;1.40;;;8.80;99.90;;;;;;1898546;75;25356;-90
2023/10/14 21:56:08;;;;;;;4.63;1.20;;;8.70;99.90;;;;;;1924794;72;27116;-88
2023/10/14 21:58:57;;;;;;;6.47;2.20;;;8.70;99.90;;;;;;1902832;73;25274;-87
2023/10/14 22:01:45;;;;;;;7.67;2.90;;;8.60;99.90;;;;;;1893782;73;25320;-87
2023/10/14 22:04:34;;;;;;;6.13;3.37;;;8.70;99.90;;;;;;1908666;73;25250;-90
2023/10/14 22:07:22;;;;;;;4.77;2.07;;;8.60;99.90;;;;;;1915323;73;25273;-90
2023/10/14 22:10:14;;;;;;;6.33;1.83;;;8.60;99.90;;;;;;1907820;73;25840;-87
2023/10/14 22:15:44;;;;;;;10.40;2.60;;;8.60;99.90;;;;;;1940275;72;27093;-87
2023/10/14 22:18:32;;;;;;;5.70;1.43;;;8.60;99.90;;;;;;1896552;73;25303;-88
2023/10/14 22:21:20;;;;;;;12.00;1.80;;;8.60;99.90;;;;;;1896026;75;25712;-88
2023/10/14 22:24:13;;;;;;;7.53;1.27;;;8.70;99.90;;;;;;1895806;73;25226;-88
2023/10/14 22:27:04;;;;;;;3.57;1.30;;;8.60;99.90;;;;;;1891845;73;25840;-88
2023/10/14 22:29:50;;;;;;;11.27;1.87;;;8.60;99.90;;;;;;1892001;73;25662;-88
2023/10/14 22:32:38;;;;;;;12.50;2.67;;;8.50;99.90;;;;;;1891553;73;25318;-88
2023/10/14 22:35:27;;;;;;;12.50;3.00;;;8.50;99.90;;;;;;1891934;73;26000;-88
2023/10/14 22:38:16;;;;;;;7.97;2.50;;;8.50;99.90;;;;;;1903122;73;25174;-88
2023/10/14 22:41:05;;;;;;;3.53;1.60;;;8.70;99.90;;;;;;1888046;75;25215;-88
2023/10/14 22:43:54;;;;;;;4.40;1.50;;;8.70;99.90;;;;;;1867533;76;25200;-88
2023/10/14 22:49:24;;;;;;;1.00;0.50;;;8.90;99.90;;;;;;1932352;72;27629;-88
2023/10/14 22:52:12;;;;;;;1.97;0.77;;;8.80;99.90;;;;;;1874254;75;25699;-88
2023/10/14 22:55:01;;;;;;;1.50;0.60;;;8.80;99.90;;;;;;1841845;77;25281;-88
2023/10/14 22:57:54;;;;;;;0.53;0.40;;;8.70;99.90;;;;;;1909104;73;25350;-88
2023/10/14 23:03:21;;;;;;;3.23;0.80;;;8.80;99.90;;;;;;1935709;72;27011;-87
2023/10/14 23:06:10;;;;;;;1.50;0.73;;;8.70;99.90;;;;;;1909472;73;25316;-89
2023/10/14 23:08:59;;;;;;;0.60;0.60;;;8.70;99.90;;;;;;1914056;73;25585;-89
2023/10/14 23:11:48;;;;;;;3.50;0.63;;;8.70;99.90;;;;;;1921304;73;25233;-87
2023/10/14 23:14:37;;;;;;;2.27;0.70;;;8.60;99.90;;;;;;1910452;73;25278;-89
2023/10/14 23:17:25;;;;;;;2.60;0.60;;;8.70;99.90;;;;;;1914755;73;25284;-87
2023/10/14 23:20:15;;;;;;;2.33;0.50;;;8.60;99.90;;;;;;1912977;73;25374;-87
2023/10/14 23:23:05;;;;;;;0.30;0.30;;;8.60;99.90;;;;;;1914736;73;25665;-87
2023/10/14 23:25:54;;;;;;;7.23;0.60;;;8.70;99.90;;;;;;1903985;73;25169;-87
2023/10/14 23:28:44;;;;;;;2.70;0.70;;;8.60;99.90;;;;;;1908614;73;26029;-88
2023/10/14 23:31:32;;;;;;;1.13;0.50;;;8.50;99.90;;;;;;1914298;73;25174;-89
2023/10/14 23:34:21;;;;;;;1.03;0.50;;;8.60;99.90;;;;;;1911338;73;25222;-88
2023/10/14 23:39:52;;;;;;;1.03;0.67;;;8.40;99.90;;;;;;1920405;72;27124;-87
2023/10/14 23:45:24;;;;;;;0.50;0.50;;;8.40;99.90;;;;;;2011451;69;26867;-87
2023/10/14 23:48:12;;;;;;;1.47;0.50;;;8.50;99.90;;;;;;1991090;72;25258;-89
2023/10/14 23:51:02;;;;;;;1.57;0.60;;;8.50;99.90;;;;;;1979190;72;25267;-89
2023/10/14 23:53:51;;;;;;;0.57;0.50;;;8.40;99.90;;;;;;1971312;71;25817;-89
2023/10/14 23:56:40;;;;;;;0.50;0.50;;;8.40;99.90;;;;;;1962257;72;25222;-89
2023/10/14 23:59:29;;;;;;;0.87;0.50;;;8.40;99.90;;;;;;1937203;72;25271;-89
